Mable, Pennsylvania
Current Conditions -  °F | °C
As of 4:15 AM on Wednesday 28 Jan 2015 (Local Time) from KHZL Reporting Station
Clear Clear  
Wind Chill: -2°   Ceiling: Unl
Heat Index: 10°   Visibility: 10mi
Dew Point:   Wind: 9mph
Humidity: 62%   Direction: 280°W
Pressure: 29.94"   Gusts: 16mph
Location:  40.7564°N, 76.3531°W
Report Text: KHZL 280915Z AUTO 28008G14KT 10SM CLR M12/M18 A2994 RMK AO2
Loading
Personal Weather Stations






























Interactive Weather Map New forecast layout! Learn more

10-Day Weather Forecast

Advertisements
Track Severe Weather on mobile